Agua Caliente, California
Current Conditions -  °F | °C
As of 6:15 AM on Saturday 20 Dec 2014 (Local Time) from KDVO Reporting Station
Moderate Fog Moderate Fog  
Wind Chill: 52°   Ceiling: NA
Heat Index: 52°   Visibility: 0.5mi
Dew Point: 52°   Wind: 5mph
Humidity: 100%   Direction: 220°SW
Pressure: 30.15"   Gusts: NA
Location:  38.257°N, 122.459°W
Report Text: KDVO 201415Z AUTO 22004KT 1/2SM FG 11/11 A3015 RMK AO2
Loading
Personal Weather Stations






























Interactive Weather Map New forecast layout! Learn more

10-Day Weather Forecast

Advertisements
Track Severe Weather on mobile